createdAt,value
2022-09-28T00:02:24.295Z,5.88
2022-09-28T00:04:51.183Z,6.22
2022-09-28T00:07:18.043Z,6.95
2022-09-28T00:09:44.940Z,6.22
2022-09-28T00:12:11.819Z,6.47
2022-09-28T00:14:40.592Z,5.88
2022-09-28T00:17:08.289Z,8.35
2022-09-28T00:19:35.126Z,7.38
2022-09-28T00:22:01.986Z,6.30
2022-09-28T00:24:28.799Z,6.25
2022-09-28T00:26:57.507Z,7.32
2022-09-28T00:29:26.534Z,6.95
2022-09-28T00:32:05.571Z,7.72
2022-09-28T00:34:35.348Z,7.60
2022-09-28T00:37:03.635Z,7.50
2022-09-28T00:39:31.705Z,7.72
2022-09-28T00:41:59.742Z,7.65
2022-09-28T00:44:26.463Z,7.25
2022-09-28T00:46:59.070Z,9.27
2022-09-28T00:49:35.041Z,9.23
2022-09-28T00:52:04.558Z,9.20
2022-09-28T00:54:31.697Z,8.02
2022-09-28T00:57:01.179Z,8.85
2022-09-28T00:59:28.437Z,8.02
2022-09-28T01:01:58.362Z,8.60
2022-09-28T01:04:29.727Z,8.27
2022-09-28T01:06:59.004Z,9.30
2022-09-28T01:09:27.375Z,8.45
2022-09-28T01:11:55.184Z,9.10
2022-09-28T01:14:25.695Z,8.77
2022-09-28T01:17:06.129Z,8.40
2022-09-28T01:19:59.314Z,9.82
2022-09-28T01:22:54.015Z,8.82
2022-09-28T01:25:23.494Z,9.35
2022-09-28T01:27:59.796Z,9.77
2022-09-28T01:30:27.317Z,9.85
2022-09-28T01:33:12.268Z,9.70
2022-09-28T01:35:49.083Z,10.20
2022-09-28T01:38:31.674Z,9.65
2022-09-28T01:41:00.620Z,9.40
2022-09-28T01:43:29.279Z,10.57
2022-09-28T01:46:01.362Z,11.32
2022-09-28T01:48:57.756Z,10.85
2022-09-28T01:51:32.232Z,10.05
2022-09-28T01:54:06.500Z,11.50
2022-09-28T01:56:49.107Z,10.82
2022-09-28T01:59:22.006Z,11.70
2022-09-28T02:02:10.602Z,11.48
2022-09-28T02:04:45.442Z,12.07
2022-09-28T02:07:37.278Z,10.95
2022-09-28T02:10:10.097Z,11.07
2022-09-28T02:12:42.911Z,11.95
2022-09-28T02:15:17.019Z,11.70
2022-09-28T02:17:44.431Z,11.85
2022-09-28T02:20:11.637Z,11.65
2022-09-28T02:22:50.695Z,12.23
2022-09-28T02:25:28.937Z,12.68
2022-09-28T02:28:01.979Z,12.57
2022-09-28T02:30:35.429Z,12.25
2022-09-28T02:33:25.729Z,12.98
2022-09-28T02:35:52.833Z,11.43
2022-09-28T02:38:19.590Z,11.95
2022-09-28T02:40:57.690Z,11.88
2022-09-28T02:43:41.754Z,12.48
2022-09-28T02:46:26.784Z,12.85
2022-09-28T02:49:20.393Z,13.57
2022-09-28T02:52:10.271Z,12.55
2022-09-28T02:54:47.792Z,12.95
2022-09-28T02:57:42.783Z,12.38
2022-09-28T03:00:22.808Z,12.27
2022-09-28T03:02:58.586Z,12.77
2022-09-28T03:05:44.985Z,11.48
2022-09-28T03:08:23.969Z,12.43
2022-09-28T03:11:04.011Z,12.48
2022-09-28T03:13:31.562Z,12.50
2022-09-28T03:16:09.865Z,13.27
2022-09-28T03:18:36.913Z,12.23
2022-09-28T03:21:05.065Z,11.65
2022-09-28T03:23:32.408Z,11.82
2022-09-28T03:25:59.651Z,12.32
2022-09-28T03:28:27.073Z,11.52
2022-09-28T03:30:54.346Z,12.25
2022-09-28T03:33:21.572Z,12.68
2022-09-28T03:35:50.428Z,12.60
2022-09-28T03:38:20.686Z,11.73
2022-09-28T03:40:59.897Z,14.02
2022-09-28T03:43:28.188Z,12.68
2022-09-28T03:46:00.479Z,12.90
2022-09-28T03:48:33.760Z,12.87
2022-09-28T03:53:29.746Z,12.43
2022-09-28T03:56:01.948Z,12.30
2022-09-28T03:58:28.924Z,14.48
2022-09-28T04:01:06.494Z,12.35
2022-09-28T04:03:33.497Z,13.40
2022-09-28T04:06:00.926Z,13.27
2022-09-28T04:08:27.968Z,13.73
2022-09-28T04:10:59.231Z,14.70
2022-09-28T04:13:27.216Z,12.88
2022-09-28T04:15:56.294Z,14.60
2022-09-28T04:18:23.814Z,13.45
2022-09-28T04:21:03.656Z,13.02
2022-09-28T04:23:30.529Z,12.95
2022-09-28T04:25:57.683Z,13.95
2022-09-28T04:28:43.755Z,13.63
2022-09-28T04:31:13.261Z,13.80
2022-09-28T04:33:40.385Z,13.80
2022-09-28T04:36:07.610Z,13.52
2022-09-28T04:38:51.815Z,13.90
2022-09-28T04:41:20.284Z,15.70
2022-09-28T04:43:47.932Z,15.50
2022-09-28T04:46:15.061Z,18.30
2022-09-28T04:48:42.355Z,19.25
2022-09-28T04:51:09.232Z,18.75
2022-09-28T04:53:36.120Z,19.33
2022-09-28T04:56:09.723Z,21.88
2022-09-28T04:58:37.150Z,20.00
2022-09-28T05:01:07.570Z,18.33
2022-09-28T05:03:34.388Z,19.65
2022-09-28T05:06:01.588Z,19.17
2022-09-28T05:08:29.171Z,19.70
2022-09-28T05:11:00.613Z,22.08
2022-09-28T05:13:28.758Z,17.98
2022-09-28T05:16:00.615Z,16.08
2022-09-28T05:18:29.981Z,20.08
2022-09-28T05:20:56.749Z,20.48
2022-09-28T05:23:23.550Z,17.40
2022-09-28T05:25:50.929Z,18.52
2022-09-28T05:28:26.159Z,17.10
2022-09-28T05:30:53.262Z,16.48
2022-09-28T05:33:20.637Z,17.98
2022-09-28T05:35:52.495Z,17.27
2022-09-28T05:40:47.525Z,18.10
2022-09-28T05:43:14.410Z,17.80
2022-09-28T05:45:41.267Z,16.35
2022-09-28T05:48:08.322Z,17.80
2022-09-28T05:50:35.163Z,18.52
2022-09-28T05:53:07.636Z,17.45
2022-09-28T05:55:35.631Z,18.60
2022-09-28T05:58:05.277Z,19.30
2022-09-28T06:00:34.654Z,15.30
2022-09-28T06:03:09.100Z,14.43
2022-09-28T06:05:37.340Z,16.23
2022-09-28T06:08:05.651Z,14.15
2022-09-28T06:10:33.690Z,14.55
2022-09-28T06:13:01.382Z,16.77
2022-09-28T06:15:31.478Z,15.85
2022-09-28T06:18:06.476Z,16.58
2022-09-28T06:20:36.688Z,16.23
2022-09-28T06:23:04.139Z,15.98
2022-09-28T06:25:31.004Z,15.70
2022-09-28T06:28:12.609Z,14.20
2022-09-28T06:30:40.882Z,17.48
2022-09-28T06:33:10.878Z,16.02
2022-09-28T06:35:37.731Z,15.80
2022-09-28T06:38:04.877Z,14.98
2022-09-28T06:40:32.317Z,15.63
2022-09-28T06:43:01.668Z,19.25
2022-09-28T06:45:30.953Z,14.90
2022-09-28T06:48:00.025Z,16.92
2022-09-28T06:50:29.255Z,15.15
2022-09-28T06:52:57.122Z,14.55
2022-09-28T06:55:25.075Z,15.18
2022-09-28T06:58:19.715Z,16.48
2022-09-28T07:00:48.763Z,14.32
2022-09-28T07:03:18.648Z,14.73
2022-09-28T07:05:48.566Z,15.63
2022-09-28T07:08:17.015Z,15.23
2022-09-28T07:10:46.147Z,13.23
2022-09-28T07:13:38.150Z,13.75
2022-09-28T07:16:01.870Z,12.73
2022-09-28T07:18:30.010Z,13.60
2022-09-28T07:20:57.439Z,13.90
2022-09-28T07:23:27.507Z,13.05
2022-09-28T07:25:54.762Z,14.32
2022-09-28T07:28:22.334Z,15.25
2022-09-28T07:30:49.486Z,15.82
2022-09-28T07:33:17.621Z,14.23
2022-09-28T07:35:55.601Z,13.43
2022-09-28T07:38:22.730Z,13.90
2022-09-28T07:41:08.680Z,13.00
2022-09-28T07:43:35.513Z,12.10
2022-09-28T07:46:02.589Z,10.55
2022-09-28T07:48:36.705Z,12.57
2022-09-28T07:51:03.980Z,13.15
2022-09-28T07:53:31.552Z,14.35
2022-09-28T07:56:02.131Z,13.98
2022-09-28T07:58:29.411Z,14.57
2022-09-28T08:00:56.290Z,13.98
2022-09-28T08:03:23.165Z,13.45
2022-09-28T08:05:50.041Z,12.18
2022-09-28T08:08:16.878Z,12.75
2022-09-28T08:10:46.865Z,13.35
2022-09-28T08:13:15.273Z,13.27
2022-09-28T08:15:42.731Z,13.10
2022-09-28T08:18:09.987Z,13.88
2022-09-28T08:20:55.358Z,13.13
2022-09-28T08:23:23.292Z,13.05
2022-09-28T08:25:54.063Z,13.88
2022-09-28T08:28:22.709Z,15.20
2022-09-28T08:30:50.361Z,13.93
2022-09-28T08:33:21.244Z,14.63
2022-09-28T08:35:48.548Z,13.65
2022-09-28T08:38:15.654Z,14.05
2022-09-28T08:41:15.977Z,12.90
2022-09-28T08:43:57.279Z,12.43
2022-09-28T08:46:28.510Z,12.68
2022-09-28T08:49:23.734Z,13.82
2022-09-28T08:51:56.843Z,14.30
2022-09-28T08:54:54.917Z,12.82
2022-09-28T08:57:42.321Z,12.77
2022-09-28T09:00:21.040Z,12.68
2022-09-28T09:02:48.789Z,10.48
2022-09-28T09:05:19.953Z,10.90
2022-09-28T09:08:07.965Z,11.23
2022-09-28T09:10:49.338Z,11.75
2022-09-28T09:13:41.712Z,11.35
2022-09-28T09:16:35.650Z,9.90
2022-09-28T09:19:14.935Z,9.68
2022-09-28T09:21:56.068Z,8.60
2022-09-28T09:24:28.246Z,8.13
2022-09-28T09:27:14.330Z,8.70
2022-09-28T09:30:06.398Z,9.52
2022-09-28T09:32:53.420Z,8.00
2022-09-28T09:35:38.671Z,8.55
2022-09-28T09:38:27.874Z,8.70
2022-09-28T09:41:00.746Z,7.60
2022-09-28T09:43:50.227Z,8.77
2022-09-28T09:46:25.723Z,7.53
2022-09-28T09:49:08.286Z,7.93
2022-09-28T09:52:06.311Z,7.33
2022-09-28T09:54:55.592Z,7.35
2022-09-28T09:57:26.367Z,7.10
2022-09-28T09:59:53.647Z,6.60
2022-09-28T10:02:25.193Z,7.72
2022-09-28T10:05:05.253Z,7.45
2022-09-28T10:07:52.352Z,8.07
2022-09-28T10:10:27.399Z,7.32
2022-09-28T10:12:54.440Z,7.80
2022-09-28T10:15:27.416Z,8.07
2022-09-28T10:18:06.575Z,6.47
2022-09-28T10:20:38.747Z,6.53
2022-09-28T10:23:12.331Z,6.75
2022-09-28T10:25:39.343Z,6.25
2022-09-28T10:28:07.594Z,6.18
2022-09-28T10:30:44.450Z,5.90
2022-09-28T10:33:33.033Z,5.75
2022-09-28T10:36:06.724Z,5.97
2022-09-28T10:38:34.213Z,6.45
2022-09-28T10:41:09.426Z,5.95
2022-09-28T10:44:14.000Z,5.45
2022-09-28T10:46:41.442Z,6.43
2022-09-28T10:49:13.806Z,6.03
2022-09-28T10:51:53.508Z,7.38
2022-09-28T10:54:22.187Z,6.50
2022-09-28T10:56:50.487Z,5.47
2022-09-28T10:59:29.497Z,6.05
2022-09-28T11:02:02.754Z,4.93
2022-09-28T11:04:38.306Z,5.47
2022-09-28T11:07:15.385Z,4.97
2022-09-28T11:09:48.763Z,5.57
2022-09-28T11:12:19.787Z,5.45
2022-09-28T11:14:52.667Z,6.07
2022-09-28T11:17:32.669Z,5.60
2022-09-28T11:20:02.145Z,5.93
2022-09-28T11:22:51.843Z,5.57
2022-09-28T11:25:24.468Z,5.30
2022-09-28T11:27:51.265Z,5.57
2022-09-28T11:30:42.621Z,4.57
2022-09-28T11:33:19.995Z,4.85
2022-09-28T11:36:13.934Z,4.68
2022-09-28T11:39:03.552Z,4.57
2022-09-28T11:42:16.126Z,5.22
2022-09-28T11:44:46.474Z,4.75
2022-09-28T11:47:40.387Z,4.60
2022-09-28T11:50:23.685Z,4.47
2022-09-28T11:52:56.817Z,4.28
2022-09-28T11:55:46.127Z,4.15
2022-09-28T11:58:36.311Z,4.25
2022-09-28T12:01:18.764Z,4.72
2022-09-28T12:03:54.008Z,3.83
2022-09-28T12:06:28.773Z,4.43
2022-09-28T12:09:03.639Z,4.47
2022-09-28T12:11:43.367Z,4.00
2022-09-28T12:14:26.061Z,3.60
2022-09-28T12:17:30.864Z,3.92
2022-09-28T12:20:05.639Z,3.55
2022-09-28T12:22:37.857Z,3.50
2022-09-28T12:25:10.364Z,3.20
2022-09-28T12:27:45.492Z,3.22
2022-09-28T12:30:15.780Z,2.58
2022-09-28T12:33:04.131Z,2.70
2022-09-28T12:35:49.169Z,2.72
2022-09-28T12:38:37.170Z,2.33
2022-09-28T12:41:21.072Z,2.05
2022-09-28T12:43:57.807Z,1.65
2022-09-28T12:47:00.192Z,1.83
2022-09-28T12:52:57.052Z,1.70
2022-09-28T12:55:55.936Z,1.60
2022-09-28T12:58:41.413Z,1.73
2022-09-28T13:01:35.788Z,1.55
2022-09-28T13:04:02.583Z,1.63
2022-09-28T13:07:06.246Z,1.88
2022-09-28T13:12:39.788Z,1.42
2022-09-28T13:15:17.669Z,1.70
2022-09-28T13:17:53.650Z,1.48
2022-09-28T13:20:20.370Z,1.77
2022-09-28T13:22:56.409Z,1.65
2022-09-28T13:25:27.234Z,1.60
2022-09-28T13:27:59.648Z,2.05
2022-09-28T13:30:27.156Z,1.58
2022-09-28T13:32:57.598Z,1.77
2022-09-28T13:35:25.188Z,1.83
2022-09-28T13:38:15.312Z,1.75
2022-09-28T13:41:04.350Z,1.63
2022-09-28T13:44:04.134Z,1.70
2022-09-28T13:46:55.646Z,1.10
2022-09-28T13:49:48.674Z,0.73
2022-09-28T13:52:51.230Z,1.20
2022-09-28T13:55:26.049Z,0.75
2022-09-28T13:58:20.621Z,0.70
2022-09-28T14:00:58.542Z,0.73
2022-09-28T14:03:52.781Z,0.75
2022-09-28T14:06:32.957Z,0.60
2022-09-28T14:09:26.825Z,0.77
2022-09-28T14:11:56.224Z,0.70
2022-09-28T14:14:50.231Z,1.08
2022-09-28T14:17:23.504Z,1.10
2022-09-28T14:20:04.508Z,0.90
2022-09-28T14:22:40.211Z,0.80
2022-09-28T14:25:25.916Z,1.23
2022-09-28T14:28:24.474Z,1.10
2022-09-28T14:30:55.990Z,0.80
2022-09-28T14:33:29.254Z,0.68
2022-09-28T14:36:06.572Z,0.63
2022-09-28T14:39:03.839Z,0.70
2022-09-28T14:41:34.583Z,0.50
2022-09-28T14:44:08.055Z,0.35
2022-09-28T14:46:43.752Z,0.22
2022-09-28T14:49:20.098Z,0.65
2022-09-28T14:52:02.209Z,0.40
2022-09-28T14:54:49.239Z,0.63
2022-09-28T14:57:22.792Z,0.30
2022-09-28T14:59:49.689Z,0.32
2022-09-28T15:02:31.953Z,0.17
2022-09-28T15:05:18.140Z,0.20
2022-09-28T15:07:47.649Z,0.40
2022-09-28T15:10:36.711Z,0.35
2022-09-28T15:13:15.839Z,0.40
2022-09-28T15:15:46.782Z,0.85
2022-09-28T15:18:43.926Z,0.47
2022-09-28T15:21:12.231Z,0.40
2022-09-28T15:23:41.412Z,0.60
2022-09-28T15:26:22.552Z,0.40
2022-09-28T15:28:49.545Z,0.40
2022-09-28T15:31:22.572Z,0.40
2022-09-28T15:36:38.821Z,2.53
2022-09-28T15:39:30.023Z,1.00
2022-09-28T15:41:57.609Z,1.00
2022-09-28T15:44:37.054Z,0.70
2022-09-28T15:47:26.104Z,0.80
2022-09-28T15:50:03.053Z,0.50
2022-09-28T15:52:40.677Z,2.97
2022-09-28T15:55:30.467Z,1.80
2022-09-28T15:58:12.608Z,1.27
2022-09-28T16:00:40.276Z,1.17
2022-09-28T16:03:07.377Z,0.70
2022-09-28T16:06:05.525Z,1.77
2022-09-28T16:08:50.873Z,3.85
2022-09-28T16:11:25.748Z,3.17
2022-09-28T16:13:56.256Z,2.90
2022-09-28T16:16:46.798Z,2.33
2022-09-28T16:19:30.961Z,1.02
2022-09-28T16:21:59.496Z,0.73
2022-09-28T16:24:36.206Z,0.85
2022-09-28T16:27:26.324Z,0.73
2022-09-28T16:30:29.560Z,0.70
2022-09-28T16:32:59.529Z,1.23
2022-09-28T16:35:30.624Z,1.23
2022-09-28T16:38:10.526Z,5.60
2022-09-28T16:40:59.508Z,4.10
2022-09-28T16:43:28.656Z,1.73
2022-09-28T16:46:12.392Z,2.13
2022-09-28T16:48:50.199Z,3.95
2022-09-28T16:51:22.043Z,1.70
2022-09-28T16:54:08.127Z,1.50
2022-09-28T16:56:36.654Z,1.30
2022-09-28T16:59:04.406Z,1.55
2022-09-28T17:01:31.761Z,1.50
2022-09-28T17:03:58.673Z,2.25
2022-09-28T17:06:26.938Z,2.10
2022-09-28T17:08:58.394Z,2.40
2022-09-28T17:11:25.474Z,3.22
2022-09-28T17:13:56.666Z,3.00
2022-09-28T17:16:49.292Z,2.50
2022-09-28T17:19:22.886Z,2.83
2022-09-28T17:21:50.967Z,2.55
2022-09-28T17:24:19.142Z,3.33
2022-09-28T17:26:49.077Z,3.50
2022-09-28T17:29:16.426Z,2.72
2022-09-28T17:31:45.574Z,3.28
2022-09-28T17:34:16.193Z,3.10
2022-09-28T17:36:43.799Z,2.88
2022-09-28T17:39:13.382Z,4.50
2022-09-28T17:41:40.913Z,4.03
2022-09-28T17:44:08.247Z,3.85
2022-09-28T17:46:38.996Z,4.13
2022-09-28T17:49:07.902Z,5.40
2022-09-28T17:51:37.637Z,3.53
2022-09-28T17:54:06.905Z,4.13
2022-09-28T17:56:34.657Z,3.80
2022-09-28T17:59:04.812Z,3.80
2022-09-28T18:01:35.314Z,2.55
2022-09-28T18:04:05.028Z,3.60
2022-09-28T18:06:37.107Z,2.92
2022-09-28T18:09:04.986Z,3.50
2022-09-28T18:11:33.059Z,3.85
2022-09-28T18:14:00.808Z,3.17
2022-09-28T18:16:28.861Z,2.78
2022-09-28T18:18:56.407Z,3.20
2022-09-28T18:21:23.471Z,3.22
2022-09-28T18:23:50.297Z,3.97
2022-09-28T18:26:19.574Z,3.35
2022-09-28T18:28:47.161Z,4.05
2022-09-28T18:31:15.612Z,4.90
2022-09-28T18:33:52.391Z,4.90
2022-09-28T18:36:19.299Z,5.15
2022-09-28T18:38:46.447Z,6.05
2022-09-28T18:41:15.549Z,6.45
2022-09-28T18:43:48.674Z,7.53
2022-09-28T18:46:17.630Z,6.50
2022-09-28T18:48:44.610Z,7.65
2022-09-28T18:51:12.282Z,7.57
2022-09-28T18:53:40.148Z,7.57
2022-09-28T18:56:09.340Z,7.90
2022-09-28T18:58:37.964Z,9.45
2022-09-28T19:01:28.871Z,8.90
2022-09-28T19:04:02.021Z,7.97
2022-09-28T19:06:30.167Z,7.93
2022-09-28T19:08:57.727Z,8.05
2022-09-28T19:11:25.957Z,9.45
2022-09-28T19:13:54.401Z,9.48
2022-09-28T19:16:33.802Z,8.25
2022-09-28T19:19:02.768Z,7.32
2022-09-28T19:21:30.166Z,8.65
2022-09-28T19:24:00.417Z,8.40
2022-09-28T19:26:28.117Z,11.55
2022-09-28T19:28:58.885Z,15.10
2022-09-28T19:31:26.929Z,13.82
2022-09-28T19:33:53.730Z,12.70
2022-09-28T19:36:23.981Z,10.13
2022-09-28T19:38:52.391Z,8.48
2022-09-28T19:41:43.430Z,7.28
2022-09-28T19:44:15.599Z,7.25
2022-09-28T19:46:42.820Z,6.22
2022-09-28T19:49:12.388Z,6.65
2022-09-28T19:51:51.431Z,7.13
2022-09-28T19:54:33.144Z,6.47
2022-09-28T19:57:07.896Z,6.22
2022-09-28T19:59:36.761Z,7.38
2022-09-28T20:02:05.521Z,8.40
2022-09-28T20:04:32.321Z,7.38
2022-09-28T20:06:59.082Z,7.05
2022-09-28T20:09:26.164Z,6.90
2022-09-28T20:11:53.249Z,7.20
2022-09-28T20:14:21.529Z,6.60
2022-09-28T20:16:50.619Z,6.88
2022-09-28T20:19:19.471Z,6.68
2022-09-28T20:21:48.350Z,6.10
2022-09-28T20:24:17.138Z,6.28
2022-09-28T20:26:44.685Z,6.13
2022-09-28T20:29:11.703Z,6.00
2022-09-28T20:31:41.022Z,7.05
2022-09-28T20:34:08.244Z,7.40
2022-09-28T20:36:35.975Z,6.82
2022-09-28T20:39:03.269Z,7.15
2022-09-28T20:41:35.649Z,6.60
2022-09-28T20:44:05.957Z,8.23
2022-09-28T20:46:34.882Z,8.65
2022-09-28T20:49:02.031Z,9.00
2022-09-28T20:51:28.965Z,9.02
2022-09-28T20:53:57.006Z,8.05
2022-09-28T20:56:27.040Z,7.30
2022-09-28T20:58:54.909Z,7.05
2022-09-28T21:01:24.585Z,7.57
2022-09-28T21:03:59.773Z,6.18
2022-09-28T21:06:35.211Z,7.35
2022-09-28T21:09:02.385Z,7.45
2022-09-28T21:11:30.804Z,6.63
2022-09-28T21:13:59.504Z,5.68
2022-09-28T21:16:28.662Z,5.55
2022-09-28T21:18:55.878Z,5.28
2022-09-28T21:21:23.783Z,5.28
2022-09-28T21:23:54.663Z,4.93
2022-09-28T21:26:26.884Z,4.93
2022-09-28T21:29:02.425Z,4.53
2022-09-28T21:31:40.858Z,5.20
2022-09-28T21:34:14.829Z,4.65
2022-09-28T21:36:43.474Z,5.00
2022-09-28T21:39:10.741Z,4.60
2022-09-28T21:41:37.634Z,4.55
2022-09-28T21:44:05.065Z,4.82
2022-09-28T21:46:34.362Z,4.47
2022-09-28T21:49:02.596Z,4.80
2022-09-28T21:51:30.918Z,4.60
2022-09-28T21:53:58.023Z,5.18
2022-09-28T21:56:24.869Z,5.10
2022-09-28T21:58:51.775Z,4.93
2022-09-28T22:01:21.385Z,4.63
2022-09-28T22:03:51.411Z,4.38
2022-09-28T22:06:20.381Z,4.60
2022-09-28T22:08:48.436Z,4.53
2022-09-28T22:11:21.963Z,4.50
2022-09-28T22:13:51.659Z,4.78
2022-09-28T22:16:21.005Z,4.07
2022-09-28T22:18:48.787Z,5.30
2022-09-28T22:21:30.434Z,4.22
2022-09-28T22:24:02.080Z,4.22
2022-09-28T22:26:30.053Z,4.20
2022-09-28T22:29:02.784Z,4.20
2022-09-28T22:31:32.363Z,4.22
2022-09-28T22:33:59.619Z,4.22
2022-09-28T22:36:26.684Z,3.97
2022-09-28T22:38:55.028Z,3.97
2022-09-28T22:41:22.010Z,4.28
2022-09-28T22:43:50.880Z,3.80
2022-09-28T22:46:20.334Z,3.75
2022-09-28T22:48:52.709Z,3.53
2022-09-28T22:51:20.268Z,4.07
2022-09-28T22:53:47.572Z,3.05
2022-09-28T22:56:18.701Z,3.88
2022-09-28T22:58:46.824Z,3.53
2022-09-28T23:01:15.366Z,3.83
2022-09-28T23:03:42.625Z,3.33
2022-09-28T23:06:11.668Z,4.43
2022-09-28T23:08:39.454Z,3.80
2022-09-28T23:11:06.515Z,3.35
2022-09-28T23:13:33.854Z,3.30
2022-09-28T23:16:14.683Z,4.72
2022-09-28T23:18:42.028Z,4.00
2022-09-28T23:21:15.389Z,4.30
2022-09-28T23:23:43.322Z,3.90
2022-09-28T23:26:18.495Z,4.07
2022-09-28T23:28:46.067Z,3.75
2022-09-28T23:31:24.889Z,3.47
2022-09-28T23:33:52.466Z,3.88
2022-09-28T23:36:19.311Z,3.58
2022-09-28T23:38:46.303Z,3.60
2022-09-28T23:41:13.161Z,4.22
2022-09-28T23:43:40.004Z,4.07
2022-09-28T23:46:07.039Z,3.85
2022-09-28T23:48:34.382Z,4.35
2022-09-28T23:51:01.699Z,4.18
2022-09-28T23:53:29.061Z,3.95
2022-09-28T23:55:56.033Z,4.28
2022-09-28T23:58:23.084Z,4.65
